Schedule Details


Flight Number: CTN444
Departure: Kastela (LDSP) at 12:30
Arrival: Schwechat (LOWW) at 13:50
Route: SIRMI M725 ZAG L187 OBUTI

Weather Information
LDSP 080000Z AUTO 05004KT 360V090 CAVOK 26/15 Q1014
LOWW 072350Z 25003KT 210V270 CAVOK 19/17 Q1020 NOSIG
Schedule Frequency

Route Map